createdAt,value
2019-01-28T00:00:11.711Z,2.73
2019-01-28T00:01:11.704Z,2.79
2019-01-28T00:02:11.681Z,2.84
2019-01-28T00:03:11.674Z,2.77
2019-01-28T00:04:11.659Z,2.67
2019-01-28T00:05:11.645Z,2.67
2019-01-28T00:06:11.676Z,2.74
2019-01-28T00:07:11.626Z,2.81
2019-01-28T00:08:11.615Z,2.76
2019-01-28T00:09:11.603Z,2.70
2019-01-28T00:10:11.592Z,2.74
2019-01-28T00:11:11.584Z,2.81
2019-01-28T00:12:11.590Z,2.69
2019-01-28T00:13:11.558Z,2.70
2019-01-28T00:14:11.547Z,2.66
2019-01-28T00:15:11.538Z,2.67
2019-01-28T00:16:11.526Z,2.74
2019-01-28T00:17:11.560Z,2.64
2019-01-28T00:18:11.511Z,2.61
2019-01-28T00:19:11.494Z,2.69
2019-01-28T00:20:11.483Z,2.64
2019-01-28T00:21:11.470Z,2.66
2019-01-28T00:22:11.474Z,2.63
2019-01-28T00:23:11.463Z,2.48
2019-01-28T00:24:11.447Z,2.37
2019-01-28T00:25:11.428Z,2.48
2019-01-28T00:26:11.418Z,2.34
2019-01-28T00:27:11.407Z,2.38
2019-01-28T00:28:11.407Z,2.20
2019-01-28T00:29:11.385Z,2.30
2019-01-28T00:30:11.381Z,2.19
2019-01-28T00:31:11.362Z,2.15
2019-01-28T00:32:11.350Z,2.16
2019-01-28T00:33:11.351Z,2.09
2019-01-28T00:34:11.330Z,2.06
2019-01-28T00:35:11.318Z,2.06
2019-01-28T00:36:11.312Z,1.99
2019-01-28T00:37:11.299Z,1.87
2019-01-28T00:38:11.319Z,2.04
2019-01-28T00:39:11.278Z,1.80
2019-01-28T00:40:11.263Z,1.79
2019-01-28T00:41:11.252Z,1.78
2019-01-28T00:42:11.247Z,1.78
2019-01-28T00:43:11.230Z,1.68
2019-01-28T00:44:11.241Z,1.71
2019-01-28T00:45:11.207Z,1.54
2019-01-28T00:46:11.196Z,1.57
2019-01-28T00:47:11.187Z,1.60
2019-01-28T00:48:11.178Z,1.57
2019-01-28T00:49:11.170Z,1.62
2019-01-28T00:50:11.167Z,1.61
2019-01-28T00:51:11.143Z,1.64
2019-01-28T00:52:11.131Z,1.57
2019-01-28T00:53:11.119Z,1.62
2019-01-28T00:54:11.109Z,1.57
2019-01-28T00:55:11.125Z,1.58
2019-01-28T00:56:11.087Z,1.60
2019-01-28T00:57:11.080Z,1.57
2019-01-28T00:58:11.070Z,1.64
2019-01-28T00:59:11.056Z,1.64
2019-01-28T01:00:11.044Z,1.58
2019-01-28T01:01:11.052Z,1.55
2019-01-28T01:02:11.022Z,1.47
2019-01-28T01:03:11.012Z,1.36
2019-01-28T01:04:10.998Z,1.37
2019-01-28T01:05:10.990Z,1.36
2019-01-28T01:06:10.991Z,1.40
2019-01-28T01:07:10.974Z,1.36
2019-01-28T01:08:10.957Z,1.29
2019-01-28T01:09:10.947Z,1.22
2019-01-28T01:10:10.948Z,1.18
2019-01-28T01:11:10.925Z,1.15
2019-01-28T01:12:10.928Z,1.03
2019-01-28T01:13:10.913Z,1.06
2019-01-28T01:14:10.892Z,1.03
2019-01-28T01:15:10.882Z,1.01
2019-01-28T01:16:10.885Z,1.04
2019-01-28T01:17:10.860Z,0.96
2019-01-28T01:18:10.847Z,1.04
2019-01-28T01:19:10.840Z,0.80
2019-01-28T01:20:10.865Z,0.82
2019-01-28T01:21:10.817Z,0.88
2019-01-28T01:22:10.802Z,0.79
2019-01-28T01:23:10.795Z,0.80
2019-01-28T01:24:10.783Z,0.90
2019-01-28T01:25:10.777Z,0.94
2019-01-28T01:26:10.786Z,0.94
2019-01-28T01:27:10.751Z,0.89
2019-01-28T01:28:10.742Z,0.92
2019-01-28T01:29:10.726Z,0.90
2019-01-28T01:30:10.715Z,0.97
2019-01-28T01:31:10.714Z,0.98
2019-01-28T01:32:10.708Z,0.96
2019-01-28T01:33:10.684Z,0.96
2019-01-28T01:34:10.674Z,0.90
2019-01-28T01:35:10.662Z,0.83
2019-01-28T01:36:10.651Z,0.75
2019-01-28T01:37:10.661Z,0.70
2019-01-28T01:38:10.628Z,0.65
2019-01-28T01:39:10.618Z,0.67
2019-01-28T01:40:10.608Z,0.71
2019-01-28T01:41:10.598Z,0.76
2019-01-28T01:42:10.598Z,0.82
2019-01-28T01:43:10.582Z,0.90
2019-01-28T01:44:10.565Z,1.01
2019-01-28T01:45:10.553Z,1.06
2019-01-28T01:46:10.546Z,1.06
2019-01-28T01:47:10.554Z,1.14
2019-01-28T01:48:10.518Z,1.19
2019-01-28T01:49:10.518Z,1.26
2019-01-28T01:50:10.498Z,1.29
2019-01-28T01:51:10.486Z,1.40
2019-01-28T01:52:10.476Z,1.40
2019-01-28T01:53:10.479Z,1.47
2019-01-28T01:54:10.468Z,1.43
2019-01-28T01:55:10.465Z,1.37
2019-01-28T01:56:10.430Z,1.47
2019-01-28T01:57:10.423Z,1.43
2019-01-28T01:58:10.424Z,1.50
2019-01-28T01:59:10.398Z,1.47
2019-01-28T02:00:10.396Z,1.50
2019-01-28T02:01:10.382Z,1.46
2019-01-28T02:02:10.370Z,1.47
2019-01-28T02:03:10.376Z,1.44
2019-01-28T02:04:10.346Z,1.50
2019-01-28T02:05:10.333Z,1.43
2019-01-28T02:06:10.327Z,1.40
2019-01-28T02:07:10.317Z,1.50
2019-01-28T02:08:10.302Z,1.40
2019-01-28T02:09:10.302Z,1.42
2019-01-28T02:10:10.283Z,1.44
2019-01-28T02:11:10.270Z,1.44
2019-01-28T02:12:10.258Z,1.46
2019-01-28T02:13:10.254Z,1.46
2019-01-28T02:14:10.248Z,1.50
2019-01-28T02:15:10.226Z,1.54
2019-01-28T02:16:10.214Z,1.50
2019-01-28T02:17:10.205Z,1.54
2019-01-28T02:18:10.205Z,1.50
2019-01-28T02:19:10.198Z,1.55
2019-01-28T02:20:10.250Z,1.64
2019-01-28T02:21:10.160Z,1.58
2019-01-28T02:22:10.148Z,1.54
2019-01-28T02:23:10.139Z,1.54
2019-01-28T02:24:10.125Z,1.44
2019-01-28T02:25:10.166Z,1.54
2019-01-28T02:26:10.107Z,1.46
2019-01-28T02:27:10.095Z,1.50
2019-01-28T02:28:10.084Z,1.40
2019-01-28T02:29:10.074Z,1.50
2019-01-28T02:30:10.063Z,1.47
2019-01-28T02:31:10.076Z,1.51
2019-01-28T02:32:10.069Z,1.44
2019-01-28T02:33:10.029Z,1.54
2019-01-28T02:34:10.018Z,1.44
2019-01-28T02:35:10.009Z,1.47
2019-01-28T02:36:09.995Z,1.50
2019-01-28T02:37:09.989Z,1.51
2019-01-28T02:38:09.991Z,1.55
2019-01-28T02:39:09.965Z,1.42
2019-01-28T02:40:09.951Z,1.50
2019-01-28T02:41:09.943Z,1.40
2019-01-28T02:42:09.940Z,1.36
2019-01-28T02:43:09.939Z,1.26
2019-01-28T02:44:09.915Z,1.25
2019-01-28T02:45:09.933Z,1.19
2019-01-28T02:46:09.890Z,1.15
2019-01-28T02:47:09.889Z,1.18
2019-01-28T02:48:09.868Z,1.24
2019-01-28T02:49:09.861Z,1.19
2019-01-28T02:50:09.866Z,1.18
2019-01-28T02:51:09.833Z,1.18
2019-01-28T02:52:09.823Z,1.19
2019-01-28T02:53:09.812Z,1.25
2019-01-28T02:54:09.801Z,1.25
2019-01-28T02:55:09.795Z,1.19
2019-01-28T02:56:09.794Z,1.16
2019-01-28T02:57:09.767Z,1.22
2019-01-28T02:58:09.761Z,1.16
2019-01-28T02:59:09.745Z,1.08
2019-01-28T03:00:09.737Z,1.10
2019-01-28T03:01:09.743Z,1.14
2019-01-28T03:02:09.714Z,1.14
2019-01-28T03:03:09.703Z,1.19
2019-01-28T03:04:09.693Z,1.18
2019-01-28T03:05:09.681Z,1.15
2019-01-28T03:06:09.681Z,1.10
2019-01-28T03:07:09.664Z,1.15
2019-01-28T03:08:09.698Z,1.14
2019-01-28T03:09:09.637Z,1.14
2019-01-28T03:10:09.626Z,1.19
2019-01-28T03:11:10.512Z,1.18
2019-01-28T03:12:09.605Z,1.12
2019-01-28T03:13:09.600Z,1.22
2019-01-28T03:14:09.585Z,1.18
2019-01-28T03:15:09.571Z,1.22
2019-01-28T03:16:09.572Z,1.24
2019-01-28T03:17:09.550Z,1.10
2019-01-28T03:18:09.538Z,1.14
2019-01-28T03:19:09.572Z,1.10
2019-01-28T03:20:09.516Z,1.10
2019-01-28T03:21:09.505Z,1.04
2019-01-28T03:22:09.496Z,0.97
2019-01-28T03:23:09.485Z,0.88
2019-01-28T03:24:09.473Z,0.82
2019-01-28T03:25:09.483Z,0.82
2019-01-28T03:26:09.492Z,0.85
2019-01-28T03:27:09.441Z,0.78
2019-01-28T03:28:09.429Z,0.82
2019-01-28T03:29:09.420Z,0.82
2019-01-28T03:30:09.426Z,0.86
2019-01-28T03:31:09.401Z,0.76
2019-01-28T03:32:09.409Z,0.70
2019-01-28T03:33:09.377Z,0.67
2019-01-28T03:34:09.365Z,0.71
2019-01-28T03:35:09.353Z,0.72
2019-01-28T03:36:09.342Z,0.72
2019-01-28T03:37:09.342Z,0.76
2019-01-28T03:38:09.345Z,0.75
2019-01-28T03:39:09.309Z,0.80
2019-01-28T03:40:09.300Z,0.79
2019-01-28T03:41:09.288Z,0.94
2019-01-28T03:42:09.276Z,1.03
2019-01-28T03:43:09.272Z,1.03
2019-01-28T03:44:09.269Z,1.01
2019-01-28T03:45:09.283Z,1.12
2019-01-28T03:46:09.828Z,1.10
2019-01-28T03:47:09.223Z,1.33
2019-01-28T03:48:09.211Z,1.39
2019-01-28T03:49:09.206Z,1.43
2019-01-28T03:50:09.190Z,1.51
2019-01-28T03:51:09.192Z,1.54
2019-01-28T03:52:09.168Z,1.57
2019-01-28T03:53:09.158Z,1.57
2019-01-28T03:54:09.147Z,1.54
2019-01-28T03:55:09.139Z,1.61
2019-01-28T03:56:09.158Z,1.57
2019-01-28T03:57:09.114Z,1.58
2019-01-28T03:58:09.102Z,1.57
2019-01-28T03:59:09.092Z,1.57
2019-01-28T04:00:09.083Z,1.58
2019-01-28T04:01:09.075Z,1.58
2019-01-28T04:02:09.088Z,1.46
2019-01-28T04:03:09.049Z,1.54
2019-01-28T04:04:09.037Z,1.58
2019-01-28T04:05:09.025Z,1.61
2019-01-28T04:06:09.019Z,1.61
2019-01-28T04:07:09.058Z,1.50
2019-01-28T04:08:09.008Z,1.47
2019-01-28T04:09:08.987Z,1.51
2019-01-28T04:10:08.970Z,1.44
2019-01-28T04:11:08.962Z,1.52
2019-01-28T04:12:08.949Z,1.54
2019-01-28T04:13:08.960Z,1.52
2019-01-28T04:14:08.930Z,1.54
2019-01-28T04:15:08.919Z,1.54
2019-01-28T04:16:08.908Z,1.52
2019-01-28T04:17:08.896Z,1.58
2019-01-28T04:18:08.922Z,1.62
2019-01-28T04:19:08.881Z,1.58
2019-01-28T04:20:08.866Z,1.46
2019-01-28T04:21:08.856Z,1.61
2019-01-28T04:22:08.841Z,1.54
2019-01-28T04:23:08.831Z,1.60
2019-01-28T04:24:08.833Z,1.62
2019-01-28T04:25:08.817Z,1.62
2019-01-28T04:26:08.796Z,1.60
2019-01-28T04:27:08.787Z,1.60
2019-01-28T04:28:08.777Z,1.57
2019-01-28T04:29:08.780Z,1.55
2019-01-28T04:30:08.759Z,1.68
2019-01-28T04:31:08.747Z,1.65
2019-01-28T04:32:08.732Z,1.64
2019-01-28T04:33:08.774Z,1.72
2019-01-28T04:34:08.711Z,1.75
2019-01-28T04:35:08.698Z,1.79
2019-01-28T04:36:08.689Z,1.73
2019-01-28T04:37:08.686Z,1.78
2019-01-28T04:38:08.668Z,1.87
2019-01-28T04:39:08.692Z,1.87
2019-01-28T04:40:08.646Z,1.85
2019-01-28T04:41:08.641Z,1.94
2019-01-28T04:42:08.626Z,1.97
2019-01-28T04:43:08.621Z,1.98
2019-01-28T04:44:08.607Z,1.90
2019-01-28T04:45:08.603Z,1.98
2019-01-28T04:46:08.594Z,1.89
2019-01-28T04:47:08.569Z,1.85
2019-01-28T04:48:08.557Z,1.90
2019-01-28T04:49:08.553Z,1.79
2019-01-28T04:50:08.570Z,1.80
2019-01-28T04:51:08.524Z,1.78
2019-01-28T04:52:08.521Z,1.82
2019-01-28T04:53:08.502Z,1.72
2019-01-28T04:54:08.492Z,1.64
2019-01-28T04:55:08.483Z,1.73
2019-01-28T04:56:08.506Z,1.76
2019-01-28T04:57:08.460Z,1.73
2019-01-28T04:58:08.447Z,1.69
2019-01-28T04:59:08.438Z,1.65
2019-01-28T05:00:08.427Z,1.64
2019-01-28T05:01:08.423Z,1.69
2019-01-28T05:02:08.417Z,1.72
2019-01-28T05:03:08.394Z,1.68
2019-01-28T05:04:08.385Z,1.69
2019-01-28T05:05:08.374Z,1.73
2019-01-28T05:06:08.362Z,1.75
2019-01-28T05:07:08.372Z,1.79
2019-01-28T05:08:08.352Z,1.73
2019-01-28T05:09:08.329Z,1.69
2019-01-28T05:10:08.319Z,1.78
2019-01-28T05:11:08.307Z,1.73
2019-01-28T05:12:08.296Z,1.75
2019-01-28T05:13:08.329Z,1.76
2019-01-28T05:14:08.274Z,1.73
2019-01-28T05:15:08.264Z,1.76
2019-01-28T05:16:08.253Z,1.76
2019-01-28T05:17:08.242Z,1.76
2019-01-28T05:18:08.230Z,1.76
2019-01-28T05:19:08.242Z,1.78
2019-01-28T05:20:08.222Z,1.80
2019-01-28T05:21:08.199Z,1.72
2019-01-28T05:22:08.187Z,1.68
2019-01-28T05:23:08.175Z,1.68
2019-01-28T05:24:08.169Z,1.65
2019-01-28T05:25:08.173Z,1.72
2019-01-28T05:26:08.144Z,1.71
2019-01-28T05:27:08.188Z,1.75
2019-01-28T05:28:08.132Z,1.75
2019-01-28T05:29:08.110Z,1.79
2019-01-28T05:30:08.112Z,1.72
2019-01-28T05:31:08.097Z,1.78
2019-01-28T05:32:08.092Z,1.71
2019-01-28T05:33:08.736Z,1.89
2019-01-28T05:34:08.058Z,1.75
2019-01-28T05:35:08.047Z,1.78
2019-01-28T05:36:08.078Z,1.82
2019-01-28T05:37:08.029Z,1.83
2019-01-28T05:38:08.014Z,1.78
2019-01-28T05:39:08.003Z,1.90
2019-01-28T05:40:07.992Z,1.94
2019-01-28T05:41:07.979Z,1.97
2019-01-28T05:42:07.985Z,2.02
2019-01-28T05:43:07.961Z,2.09
2019-01-28T05:44:07.947Z,2.09
2019-01-28T05:45:07.936Z,2.13
2019-01-28T05:46:07.925Z,2.13
2019-01-28T05:47:07.946Z,2.19
2019-01-28T05:48:07.904Z,2.19
2019-01-28T05:49:07.903Z,2.23
2019-01-28T05:50:07.884Z,2.23
2019-01-28T05:51:07.871Z,2.13
2019-01-28T05:52:07.859Z,2.19
2019-01-28T05:53:07.863Z,2.16
2019-01-28T05:54:07.839Z,2.20
2019-01-28T05:55:07.834Z,2.19
2019-01-28T05:56:07.816Z,2.22
2019-01-28T05:57:08.748Z,2.28
2019-01-28T05:58:07.796Z,2.35
2019-01-28T05:59:07.784Z,2.40
2019-01-28T06:00:07.774Z,2.28
2019-01-28T06:01:07.766Z,2.35
2019-01-28T06:02:07.766Z,2.38
2019-01-28T06:03:07.739Z,2.44
2019-01-28T06:04:07.741Z,2.35
2019-01-28T06:05:07.720Z,2.37
2019-01-28T06:06:07.706Z,2.30
2019-01-28T06:07:07.702Z,2.34
2019-01-28T06:08:07.695Z,2.35
2019-01-28T06:09:07.686Z,2.38
2019-01-28T06:10:07.663Z,2.30
2019-01-28T06:11:07.666Z,2.38
2019-01-28T06:12:07.641Z,2.35
2019-01-28T06:13:07.637Z,2.34
2019-01-28T06:14:07.622Z,2.37
2019-01-28T06:15:07.610Z,2.40
2019-01-28T06:16:07.611Z,2.35
2019-01-28T06:17:07.587Z,2.40
2019-01-28T06:18:07.577Z,2.38
2019-01-28T06:19:07.582Z,2.35
2019-01-28T06:20:07.554Z,2.34
2019-01-28T06:21:07.558Z,2.37
2019-01-28T06:22:07.533Z,2.38
2019-01-28T06:23:07.519Z,2.38
2019-01-28T06:24:07.510Z,2.41
2019-01-28T06:25:07.505Z,2.33
2019-01-28T06:26:07.519Z,2.40
2019-01-28T06:27:07.476Z,2.44
2019-01-28T06:28:07.470Z,2.35
2019-01-28T06:29:07.456Z,2.31
2019-01-28T06:30:07.445Z,2.40
2019-01-28T06:31:07.438Z,2.28
2019-01-28T06:32:07.436Z,2.30
2019-01-28T06:33:07.412Z,2.35
2019-01-28T06:34:07.414Z,2.33
2019-01-28T06:35:07.388Z,2.31
2019-01-28T06:36:07.379Z,2.38
2019-01-28T06:37:07.374Z,2.27
2019-01-28T06:38:07.364Z,2.19
2019-01-28T06:39:07.360Z,2.22
2019-01-28T06:40:07.336Z,2.10
2019-01-28T06:41:07.324Z,2.16
2019-01-28T06:42:07.314Z,2.17
2019-01-28T06:43:07.303Z,2.19
2019-01-28T06:44:07.331Z,2.19
2019-01-28T06:45:07.281Z,2.12
2019-01-28T06:46:07.269Z,2.15
2019-01-28T06:47:07.260Z,2.17
2019-01-28T06:48:07.247Z,2.13
2019-01-28T06:49:07.236Z,2.16
2019-01-28T06:50:07.243Z,2.15
2019-01-28T06:51:07.252Z,2.09
2019-01-28T06:52:07.208Z,2.08
2019-01-28T06:53:07.194Z,2.06
2019-01-28T06:54:07.182Z,2.12
2019-01-28T06:55:07.170Z,2.09
2019-01-28T06:56:07.165Z,2.08
2019-01-28T06:57:07.183Z,2.10
2019-01-28T06:58:07.138Z,2.09
2019-01-28T06:59:07.128Z,2.10
2019-01-28T07:00:07.117Z,2.12
2019-01-28T07:01:07.104Z,2.15
2019-01-28T07:02:07.098Z,2.09
2019-01-28T07:03:07.096Z,2.13
2019-01-28T07:04:07.072Z,2.08
2019-01-28T07:05:07.060Z,2.08
2019-01-28T07:06:07.050Z,2.09
2019-01-28T07:07:07.039Z,2.15
2019-01-28T07:08:07.048Z,2.08
2019-01-28T07:09:07.034Z,2.04
2019-01-28T07:10:07.006Z,2.15
2019-01-28T07:11:06.995Z,2.12
2019-01-28T07:12:06.988Z,2.06
2019-01-28T07:13:06.974Z,2.12
2019-01-28T07:14:06.971Z,2.13
2019-01-28T07:15:06.964Z,2.15
2019-01-28T07:16:06.945Z,2.15
2019-01-28T07:17:06.929Z,2.06
2019-01-28T07:18:06.918Z,2.08
2019-01-28T07:19:06.921Z,2.22
2019-01-28T07:20:06.906Z,2.13
2019-01-28T07:21:06.886Z,2.22
2019-01-28T07:22:06.874Z,2.19
2019-01-28T07:23:06.864Z,2.23
2019-01-28T07:24:06.913Z,2.19
2019-01-28T07:25:06.842Z,2.27
2019-01-28T07:26:06.837Z,2.15
2019-01-28T07:27:06.820Z,2.17
2019-01-28T07:28:06.815Z,2.19
2019-01-28T07:29:06.797Z,2.13
2019-01-28T07:30:06.819Z,2.23
2019-01-28T07:31:06.775Z,2.17
2019-01-28T07:32:06.769Z,2.23
2019-01-28T07:33:06.758Z,2.10
2019-01-28T07:34:06.745Z,2.16
2019-01-28T07:35:06.732Z,2.19
2019-01-28T07:36:06.733Z,2.16
2019-01-28T07:37:06.711Z,2.15
2019-01-28T07:38:06.706Z,2.28
2019-01-28T07:39:06.691Z,2.20
2019-01-28T07:40:06.677Z,2.15
2019-01-28T07:41:06.697Z,2.23
2019-01-28T07:42:06.654Z,2.26
2019-01-28T07:43:06.645Z,2.19
2019-01-28T07:44:06.646Z,2.26
2019-01-28T07:45:06.622Z,2.17
2019-01-28T07:46:06.610Z,2.27
2019-01-28T07:47:06.633Z,2.17
2019-01-28T07:48:06.590Z,2.20
2019-01-28T07:49:06.581Z,2.22
2019-01-28T07:50:06.574Z,2.28
2019-01-28T07:51:06.557Z,2.20
2019-01-28T07:52:06.546Z,2.23
2019-01-28T07:53:06.549Z,2.33
2019-01-28T07:54:06.524Z,2.28
2019-01-28T07:55:06.513Z,2.30
2019-01-28T07:56:06.506Z,2.34
2019-01-28T07:57:06.525Z,2.35
2019-01-28T07:58:06.482Z,2.34
2019-01-28T07:59:06.468Z,2.23
2019-01-28T08:00:06.458Z,2.35
2019-01-28T08:01:06.447Z,2.35
2019-01-28T08:02:06.443Z,2.35
2019-01-28T08:03:06.437Z,2.44
2019-01-28T08:04:06.413Z,2.33
2019-01-28T08:05:06.403Z,2.44
2019-01-28T08:06:06.392Z,2.48
2019-01-28T08:07:06.380Z,2.46
2019-01-28T08:08:06.392Z,2.41
2019-01-28T08:09:06.397Z,2.37
2019-01-28T08:10:06.358Z,2.44
2019-01-28T08:11:06.379Z,2.37
2019-01-28T08:12:06.327Z,2.37
2019-01-28T08:13:06.315Z,2.44
2019-01-28T08:14:06.316Z,2.49
2019-01-28T08:15:06.306Z,2.52
2019-01-28T08:16:06.315Z,2.52
2019-01-28T08:17:06.270Z,2.53
2019-01-28T08:18:10.971Z,2.58
2019-01-28T08:19:06.247Z,2.52
2019-01-28T08:20:11.462Z,2.58
2019-01-28T08:21:07.261Z,2.55
2019-01-28T08:22:06.217Z,2.51
2019-01-28T08:23:06.205Z,2.51
2019-01-28T08:24:06.196Z,2.58
2019-01-28T08:25:06.186Z,2.53
2019-01-28T08:26:06.179Z,2.59
2019-01-28T08:27:06.194Z,2.52
2019-01-28T08:28:06.150Z,2.56
2019-01-28T08:29:06.138Z,2.61
2019-01-28T08:30:06.129Z,2.56
2019-01-28T08:31:06.117Z,2.64
2019-01-28T08:32:06.114Z,2.61
2019-01-28T08:33:06.110Z,2.61
2019-01-28T08:34:06.098Z,2.69
2019-01-28T08:35:06.074Z,2.61
2019-01-28T08:36:06.064Z,2.66
2019-01-28T08:37:06.053Z,2.67
2019-01-28T08:38:06.058Z,2.71
2019-01-28T08:39:06.032Z,2.63
2019-01-28T08:40:06.043Z,2.71
2019-01-28T08:41:06.009Z,2.81
2019-01-28T08:42:05.999Z,2.74
2019-01-28T08:43:05.986Z,2.69
2019-01-28T08:44:05.982Z,2.79
2019-01-28T08:45:05.966Z,2.77
2019-01-28T08:46:05.993Z,2.82
2019-01-28T08:47:05.951Z,2.79
2019-01-28T08:48:05.933Z,2.71
2019-01-28T08:49:05.922Z,2.77
2019-01-28T08:50:05.917Z,2.79
2019-01-28T08:51:05.901Z,2.82
2019-01-28T08:52:05.903Z,2.84
2019-01-28T08:53:05.878Z,2.88
2019-01-28T08:54:05.866Z,2.82
2019-01-28T08:55:05.857Z,2.89
2019-01-28T08:56:05.885Z,2.88
2019-01-28T08:57:05.835Z,2.92
2019-01-28T08:58:05.822Z,2.95
2019-01-28T08:59:05.824Z,2.95
2019-01-28T09:00:05.801Z,2.95
2019-01-28T09:01:05.790Z,3.03
2019-01-28T09:02:05.809Z,2.98
2019-01-28T09:03:05.770Z,3.00
2019-01-28T09:04:05.759Z,2.92
2019-01-28T09:05:05.747Z,3.10
2019-01-28T09:06:05.735Z,3.12
2019-01-28T09:07:05.725Z,3.15
2019-01-28T09:08:05.752Z,3.18
2019-01-28T09:09:05.703Z,3.23
2019-01-28T09:10:05.694Z,3.18
2019-01-28T09:11:05.681Z,3.20
2019-01-28T09:12:05.672Z,3.24
2019-01-28T09:13:05.664Z,3.27
2019-01-28T09:14:05.669Z,3.28
2019-01-28T09:15:05.639Z,3.34
2019-01-28T09:16:05.625Z,3.42
2019-01-28T09:17:05.616Z,3.52
2019-01-28T09:18:05.606Z,3.62
2019-01-28T09:19:05.628Z,3.57
2019-01-28T09:20:05.587Z,3.65
2019-01-28T09:21:05.571Z,3.78
2019-01-28T09:22:05.562Z,3.67
2019-01-28T09:23:05.551Z,3.78
2019-01-28T09:24:05.539Z,3.78
2019-01-28T09:25:05.539Z,3.75
2019-01-28T09:26:06.642Z,3.86
2019-01-28T09:27:05.504Z,3.85
2019-01-28T09:28:05.498Z,3.88
2019-01-28T09:29:05.483Z,3.88
2019-01-28T09:30:05.473Z,3.86
2019-01-28T09:31:05.461Z,3.89
2019-01-28T09:32:05.470Z,3.88
2019-01-28T09:33:05.440Z,3.79
2019-01-28T09:34:05.428Z,3.85
2019-01-28T09:35:05.414Z,3.88
2019-01-28T09:36:05.418Z,3.94
2019-01-28T09:37:05.407Z,3.88
2019-01-28T09:38:05.388Z,3.86
2019-01-28T09:39:05.370Z,3.83
2019-01-28T09:40:05.362Z,3.82
2019-01-28T09:41:05.369Z,3.97
2019-01-28T09:42:05.339Z,3.98
2019-01-28T09:43:05.326Z,4.03
2019-01-28T09:44:05.322Z,3.96
2019-01-28T09:45:05.316Z,4.00
2019-01-28T09:46:05.294Z,4.03
2019-01-28T09:47:05.309Z,4.08
2019-01-28T09:48:05.273Z,4.14
2019-01-28T09:49:05.259Z,4.25
2019-01-28T09:50:05.255Z,4.21
2019-01-28T09:51:05.238Z,4.19
2019-01-28T09:52:05.227Z,4.22
2019-01-28T09:53:05.250Z,4.29
2019-01-28T09:54:05.208Z,4.29
2019-01-28T09:55:05.195Z,4.32
2019-01-28T09:56:05.190Z,4.36
2019-01-28T09:57:05.172Z,4.42
2019-01-28T09:58:05.161Z,4.32
2019-01-28T09:59:05.164Z,4.29
2019-01-28T10:00:05.138Z,4.29
2019-01-28T10:01:05.130Z,4.33
2019-01-28T10:02:05.120Z,4.25
2019-01-28T10:03:05.112Z,4.29
2019-01-28T10:04:05.107Z,4.33
2019-01-28T10:05:05.116Z,4.32
2019-01-28T10:06:05.073Z,4.29
2019-01-28T10:07:05.062Z,4.25
2019-01-28T10:08:05.051Z,4.33
2019-01-28T10:09:10.019Z,4.37
2019-01-28T10:10:06.042Z,4.36
2019-01-28T10:11:05.017Z,4.37
2019-01-28T10:12:05.007Z,4.37
2019-01-28T10:13:04.996Z,4.37
2019-01-28T10:14:04.985Z,4.37
2019-01-28T10:15:04.995Z,4.46
2019-01-28T10:16:04.985Z,4.39
2019-01-28T10:17:04.959Z,4.43
2019-01-28T10:18:04.942Z,4.46
2019-01-28T10:19:04.939Z,4.46
2019-01-28T10:20:04.933Z,4.46
2019-01-28T10:21:04.906Z,4.46
2019-01-28T10:22:04.900Z,4.43
2019-01-28T10:23:04.886Z,4.44
2019-01-28T10:24:04.874Z,4.37
2019-01-28T10:25:04.901Z,4.37
2019-01-28T10:26:04.851Z,4.40
2019-01-28T10:27:04.848Z,4.34
2019-01-28T10:28:04.834Z,4.39
2019-01-28T10:29:04.824Z,4.40
2019-01-28T10:30:04.809Z,4.33
2019-01-28T10:31:04.810Z,4.40
2019-01-28T10:32:04.785Z,4.55
2019-01-28T10:33:04.776Z,4.39
2019-01-28T10:34:06.319Z,4.42
2019-01-28T10:35:04.761Z,4.50
2019-01-28T10:36:04.755Z,4.55
2019-01-28T10:37:04.732Z,4.50
2019-01-28T10:38:04.721Z,4.55
2019-01-28T10:39:04.722Z,4.55
2019-01-28T10:40:04.698Z,4.46
2019-01-28T10:41:04.691Z,4.50
2019-01-28T10:42:09.696Z,4.59
2019-01-28T10:43:05.663Z,4.57
2019-01-28T10:44:10.121Z,4.59
2019-01-28T10:45:05.641Z,4.50
2019-01-28T10:46:04.644Z,4.58
2019-01-28T10:47:04.624Z,4.50
2019-01-28T10:48:04.612Z,4.51
2019-01-28T10:49:04.637Z,4.54
2019-01-28T10:50:04.587Z,4.50
2019-01-28T10:51:04.577Z,4.50
2019-01-28T10:52:04.567Z,4.50
2019-01-28T10:53:04.558Z,4.51
2019-01-28T10:54:04.545Z,4.37
2019-01-28T10:55:04.546Z,4.46
2019-01-28T10:56:04.523Z,4.40
2019-01-28T10:57:04.512Z,4.52
2019-01-28T10:58:04.502Z,4.40
2019-01-28T10:59:04.494Z,4.46
2019-01-28T11:00:04.501Z,4.47
2019-01-28T11:01:04.465Z,4.46
2019-01-28T11:02:04.458Z,4.42
2019-01-28T11:03:04.444Z,4.43
2019-01-28T11:04:04.435Z,4.37
2019-01-28T11:05:04.428Z,4.34
2019-01-28T11:06:04.443Z,4.40
2019-01-28T11:07:04.401Z,4.34
2019-01-28T11:08:04.391Z,4.43
2019-01-28T11:09:04.389Z,4.34
2019-01-28T11:10:04.433Z,4.43
2019-01-28T11:11:04.451Z,4.39
2019-01-28T11:12:04.361Z,4.47
2019-01-28T11:13:05.250Z,4.40
2019-01-28T11:14:04.380Z,4.47
2019-01-28T11:15:04.442Z,4.44
2019-01-28T11:16:04.420Z,4.47
2019-01-28T11:17:04.302Z,4.54
2019-01-28T11:18:04.294Z,4.47
2019-01-28T11:19:04.383Z,4.59
2019-01-28T11:20:04.388Z,4.62
2019-01-28T11:21:04.329Z,4.57
2019-01-28T11:22:04.266Z,4.58
2019-01-28T11:23:04.334Z,4.64
2019-01-28T11:24:04.249Z,4.65
2019-01-28T11:25:04.208Z,4.62
2019-01-28T11:26:04.333Z,4.65
2019-01-28T11:27:04.251Z,4.77
2019-01-28T11:28:04.180Z,4.69
2019-01-28T11:29:04.165Z,4.69
2019-01-28T11:30:04.213Z,4.75
2019-01-28T11:31:04.147Z,4.75
2019-01-28T11:32:04.186Z,4.73
2019-01-28T11:33:04.170Z,4.65
2019-01-28T11:34:04.236Z,4.65
2019-01-28T11:35:04.240Z,4.61
2019-01-28T11:36:05.406Z,4.51
2019-01-28T11:37:04.075Z,4.43
2019-01-28T11:38:04.097Z,4.46
2019-01-28T11:39:04.188Z,4.40
2019-01-28T11:40:04.055Z,4.51
2019-01-28T11:41:04.081Z,4.39
2019-01-28T11:42:04.096Z,4.51
2019-01-28T11:43:04.086Z,4.51
2019-01-28T11:44:03.991Z,4.52
2019-01-28T11:45:04.089Z,4.61
2019-01-28T11:46:04.014Z,4.55
2019-01-28T11:47:04.092Z,4.57
2019-01-28T11:48:04.048Z,4.61
2019-01-28T11:49:05.921Z,4.50
2019-01-28T11:50:04.150Z,4.54
2019-01-28T11:51:03.916Z,4.42
2019-01-28T11:52:03.905Z,4.47
2019-01-28T11:53:03.897Z,4.47
2019-01-28T11:54:03.884Z,4.40
2019-01-28T11:55:03.879Z,4.40
2019-01-28T11:56:03.878Z,4.33
2019-01-28T11:57:03.851Z,4.34
2019-01-28T11:58:03.840Z,4.32
2019-01-28T11:59:03.828Z,4.29
2019-01-28T12:00:03.818Z,4.24
2019-01-28T12:01:03.812Z,4.22
2019-01-28T12:02:03.833Z,4.26
2019-01-28T12:03:03.790Z,4.22
2019-01-28T12:04:03.771Z,4.21
2019-01-28T12:05:03.763Z,4.28
2019-01-28T12:06:03.752Z,4.22
2019-01-28T12:07:03.739Z,4.25
2019-01-28T12:08:03.771Z,4.22
2019-01-28T12:09:03.716Z,4.24
2019-01-28T12:10:03.706Z,4.29
2019-01-28T12:11:03.695Z,4.21
2019-01-28T12:12:03.684Z,4.24
2019-01-28T12:13:03.671Z,4.22
2019-01-28T12:14:03.679Z,4.22
2019-01-28T12:15:03.670Z,4.25
2019-01-28T12:16:03.639Z,4.19
2019-01-28T12:17:03.640Z,4.18
2019-01-28T12:18:03.618Z,4.22
2019-01-28T12:19:03.605Z,4.21
2019-01-28T12:20:03.609Z,4.24
2019-01-28T12:21:03.595Z,4.18
2019-01-28T12:22:03.585Z,4.19
2019-01-28T12:23:03.561Z,4.19
2019-01-28T12:24:03.552Z,4.16
2019-01-28T12:25:03.538Z,4.18
2019-01-28T12:26:03.529Z,4.04
2019-01-28T12:27:03.561Z,4.03
2019-01-28T12:28:03.506Z,4.07
2019-01-28T12:29:03.495Z,4.19
2019-01-28T12:30:03.483Z,4.21
2019-01-28T12:31:03.471Z,4.16
2019-01-28T12:32:03.461Z,4.22
2019-01-28T12:33:03.489Z,4.22
2019-01-28T12:34:03.502Z,4.24
2019-01-28T12:35:03.428Z,4.15
2019-01-28T12:36:03.419Z,4.04
2019-01-28T12:37:03.404Z,4.00
2019-01-28T12:38:03.396Z,4.00
2019-01-28T12:39:03.433Z,3.92
2019-01-28T12:40:03.374Z,3.98
2019-01-28T12:41:17.289Z,3.97
2019-01-28T12:42:05.787Z,3.98
2019-01-28T12:43:03.341Z,3.97
2019-01-28T12:44:03.328Z,3.90
2019-01-28T12:45:03.330Z,3.83
2019-01-28T12:46:03.490Z,3.89
2019-01-28T12:47:03.297Z,3.89
2019-01-28T12:48:03.291Z,3.85
2019-01-28T12:49:03.322Z,3.83
2019-01-28T12:50:03.264Z,3.79
2019-01-28T12:51:03.251Z,3.76
2019-01-28T12:52:03.243Z,3.79
2019-01-28T12:53:03.260Z,3.62
2019-01-28T12:54:03.217Z,3.72
2019-01-28T12:55:03.223Z,3.67
2019-01-28T12:56:03.198Z,3.75
2019-01-28T12:57:03.186Z,3.75
2019-01-28T12:58:03.174Z,3.67
2019-01-28T12:59:09.011Z,3.62
2019-01-28T13:00:04.185Z,3.78
2019-01-28T13:01:03.152Z,3.76
2019-01-28T13:02:03.130Z,3.72
2019-01-28T13:03:03.138Z,3.71
2019-01-28T13:04:03.116Z,3.76
2019-01-28T13:05:03.116Z,3.78
2019-01-28T13:06:03.104Z,3.76
2019-01-28T13:07:03.076Z,3.78
2019-01-28T13:08:03.092Z,3.62
2019-01-28T13:09:03.051Z,3.67
2019-01-28T13:10:03.039Z,3.75
2019-01-28T13:11:03.038Z,3.68
2019-01-28T13:12:03.019Z,3.67
2019-01-28T13:13:03.011Z,3.62
2019-01-28T13:14:03.015Z,3.68
2019-01-28T13:15:02.985Z,3.68
2019-01-28T13:16:02.973Z,3.70
2019-01-28T13:17:02.963Z,3.68
2019-01-28T13:18:02.974Z,3.70